Time;durP1;ratioP1;P1;durP2;ratioP2;P2;SDS_P1;SDS_P2;PMS_P1;PMS_P2;Temp;Humidity;BMP_temperature;BMP_pressure;BME280_temperature;BME280_humidity;BME280_pressure;Samples;Min_cycle;Max_cycle;Signal;HPM_P1;HPM_P2
2022/04/12 00:00:26;;;;;;;4.70;2.83;;;5.00;99.90;;;;;;5074346;28;20276;-65
2022/04/12 00:02:52;;;;;;;4.10;2.47;;;4.90;99.90;;;;;;5074856;28;20213;-67
2022/04/12 00:05:18;;;;;;;3.93;2.43;;;4.80;99.90;;;;;;5074632;28;20250;-67
2022/04/12 00:07:43;;;;;;;3.93;2.73;;;4.70;99.90;;;;;;5074165;28;20604;-67
2022/04/12 00:10:11;;;;;;;7.80;3.37;;;4.70;99.90;;;;;;5073630;28;20162;-67
2022/04/12 00:12:37;;;;;;;3.70;3.00;;;4.80;99.90;;;;;;5074278;28;20250;-66
2022/04/12 00:15:05;;;;;;;3.67;2.67;;;4.60;99.90;;;;;;5074181;28;20213;-66
2022/04/12 00:20:15;;;;;;;5.03;2.57;;;4.60;99.90;;;;;;5073918;28;20204;-65
2022/04/12 00:22:41;;;;;;;6.97;3.53;;;4.60;99.90;;;;;;5057302;28;20287;-67
2022/04/12 00:25:09;;;;;;;3.77;2.70;;;4.70;99.90;;;;;;5075653;28;20249;-67
2022/04/12 00:27:40;;;;;;;7.10;3.27;;;4.70;99.90;;;;;;5059186;28;20626;-65
2022/04/12 00:30:09;;;;;;;3.27;2.43;;;4.70;99.90;;;;;;5078278;28;20191;-66
2022/04/12 00:32:35;;;;;;;4.63;3.00;;;4.50;99.90;;;;;;5077461;28;20247;-66
2022/04/12 00:35:03;;;;;;;7.17;2.90;;;4.40;99.90;;;;;;5079376;28;20177;-65
2022/04/12 00:37:29;;;;;;;5.30;3.03;;;4.60;99.90;;;;;;5074138;28;20232;-67
2022/04/12 00:39:55;;;;;;;4.40;2.90;;;4.50;99.90;;;;;;5075226;28;20198;-65
2022/04/12 00:42:21;;;;;;;6.60;3.13;;;4.30;99.90;;;;;;5074262;28;20188;-67
2022/04/12 00:44:47;;;;;;;5.73;3.00;;;4.30;99.90;;;;;;5073736;28;20311;-67
2022/04/12 00:47:13;;;;;;;3.97;2.83;;;4.30;99.90;;;;;;5055972;28;20599;-66
2022/04/12 00:49:39;;;;;;;6.20;3.17;;;4.10;99.90;;;;;;5073772;28;20164;-65
2022/04/12 00:52:06;;;;;;;3.33;2.77;;;4.20;99.90;;;;;;5073558;28;20595;-67
2022/04/12 00:54:34;;;;;;;4.77;3.20;;;4.20;99.90;;;;;;5072531;28;20179;-65
2022/04/12 00:57:01;;;;;;;6.17;3.00;;;4.20;99.90;;;;;;5073232;28;20155;-66
2022/04/12 00:59:26;;;;;;;6.83;3.20;;;4.20;99.90;;;;;;5073063;28;20259;-65
2022/04/12 01:01:52;;;;;;;3.80;2.93;;;4.20;99.90;;;;;;5073120;28;20231;-66
2022/04/12 01:04:19;;;;;;;4.70;3.03;;;4.10;99.90;;;;;;5073228;28;20177;-66
2022/04/12 01:06:45;;;;;;;4.73;2.80;;;4.10;99.90;;;;;;5073029;28;20159;-67
2022/04/12 01:09:12;;;;;;;4.57;2.83;;;4.00;99.90;;;;;;5074047;28;20468;-64
2022/04/12 01:11:39;;;;;;;5.20;3.00;;;4.00;99.90;;;;;;5073741;28;20187;-66
2022/04/12 01:14:06;;;;;;;4.13;2.90;;;4.00;99.90;;;;;;5070195;28;20198;-65
2022/04/12 01:16:31;;;;;;;7.90;3.20;;;4.00;99.90;;;;;;5055939;28;20569;-65
2022/04/12 01:18:57;;;;;;;4.13;2.70;;;3.90;99.90;;;;;;5075042;28;20197;-67
2022/04/12 01:21:23;;;;;;;5.50;2.83;;;3.80;99.90;;;;;;5084605;28;20196;-68
2022/04/12 01:23:57;;;;;;;5.67;2.57;;;3.90;99.90;;;;;;5084213;28;20163;-67
2022/04/12 01:26:23;;;;;;;4.80;2.97;;;3.90;99.90;;;;;;5084332;28;20179;-66
2022/04/12 01:28:49;;;;;;;4.20;2.97;;;3.90;99.90;;;;;;5078658;28;20164;-66
2022/04/12 01:31:14;;;;;;;4.73;3.47;;;3.70;99.90;;;;;;5076439;28;20160;-67
2022/04/12 01:33:40;;;;;;;5.23;3.23;;;3.70;99.90;;;;;;5073736;28;20169;-66
2022/04/12 01:36:06;;;;;;;7.23;3.13;;;3.70;99.90;;;;;;5055729;28;20189;-65
2022/04/12 01:38:31;;;;;;;4.23;3.00;;;3.80;99.90;;;;;;5072848;28;20228;-65
2022/04/12 01:40:57;;;;;;;4.07;2.97;;;3.80;99.90;;;;;;5073408;28;20518;-67
2022/04/12 01:43:22;;;;;;;5.17;3.10;;;3.90;99.90;;;;;;5073508;28;20172;-66
2022/04/12 01:45:48;;;;;;;3.63;2.60;;;3.80;99.90;;;;;;5073120;28;20169;-66
2022/04/12 01:48:13;;;;;;;6.87;2.77;;;3.80;99.90;;;;;;5054665;28;20705;-68
2022/04/12 01:50:39;;;;;;;4.33;2.60;;;3.70;99.90;;;;;;5073291;28;20164;-67
2022/04/12 01:53:05;;;;;;;6.10;2.97;;;3.70;99.90;;;;;;5073606;28;20163;-67
2022/04/12 01:55:30;;;;;;;3.10;2.67;;;3.70;99.90;;;;;;5073494;28;20492;-66
2022/04/12 01:57:56;;;;;;;7.33;3.07;;;3.70;99.90;;;;;;5073334;28;20172;-67
2022/04/12 02:00:21;;;;;;;7.03;3.43;;;3.60;99.90;;;;;;5073004;28;20192;-67
2022/04/12 02:02:47;;;;;;;3.73;3.03;;;3.60;99.90;;;;;;5073245;28;20222;-66
2022/04/12 02:05:13;;;;;;;6.93;2.80;;;3.70;99.90;;;;;;5074125;28;20166;-67
2022/04/12 02:07:41;;;;;;;4.33;2.97;;;3.60;99.90;;;;;;5076616;28;20181;-65
2022/04/12 02:10:08;;;;;;;5.43;2.90;;;3.60;99.90;;;;;;5058623;28;20214;-65
2022/04/12 02:12:34;;;;;;;5.40;2.73;;;3.60;99.90;;;;;;5076165;28;20181;-65
2022/04/12 02:14:59;;;;;;;3.50;2.87;;;3.60;99.90;;;;;;5076066;28;20500;-64
2022/04/12 02:17:25;;;;;;;3.73;2.43;;;3.50;99.90;;;;;;5058179;28;20180;-67
2022/04/12 02:19:50;;;;;;;4.67;3.00;;;3.50;99.90;;;;;;5076440;28;20289;-66
2022/04/12 02:22:16;;;;;;;5.10;3.10;;;3.50;99.90;;;;;;5076117;28;20603;-65
2022/04/12 02:24:42;;;;;;;4.90;3.00;;;3.50;99.90;;;;;;5076173;28;20595;-67
2022/04/12 02:27:07;;;;;;;8.90;3.40;;;3.50;99.90;;;;;;5075725;28;20170;-66
2022/04/12 02:29:33;;;;;;;6.00;3.20;;;3.40;99.90;;;;;;5076246;28;20226;-66
2022/04/12 02:31:58;;;;;;;4.17;2.90;;;3.50;99.90;;;;;;5076382;28;20190;-66
2022/04/12 02:34:24;;;;;;;3.47;2.50;;;3.50;99.90;;;;;;5075994;28;20504;-64
2022/04/12 02:36:50;;;;;;;4.57;3.40;;;3.60;99.90;;;;;;5076518;28;20185;-66
2022/04/12 02:39:16;;;;;;;4.03;3.10;;;3.60;99.90;;;;;;5076739;28;20600;-65
2022/04/12 02:41:41;;;;;;;3.67;2.87;;;3.60;99.90;;;;;;5077540;28;20168;-65
2022/04/12 02:44:07;;;;;;;4.67;2.93;;;3.50;99.90;;;;;;5078132;28;20248;-67
2022/04/12 02:46:32;;;;;;;5.03;2.90;;;3.50;99.90;;;;;;5076801;28;20168;-66
2022/04/12 02:48:58;;;;;;;3.60;2.70;;;3.50;99.90;;;;;;5077285;28;20261;-65
2022/04/12 02:51:23;;;;;;;10.93;3.50;;;3.40;99.90;;;;;;5077450;28;20213;-65
2022/04/12 02:53:49;;;;;;;6.70;2.97;;;3.40;99.90;;;;;;5060126;28;20180;-66
2022/04/12 02:56:15;;;;;;;8.03;3.20;;;3.40;99.90;;;;;;5078907;28;20380;-65
2022/04/12 02:58:40;;;;;;;5.17;3.00;;;3.40;99.90;;;;;;5078509;28;20245;-67
2022/04/12 03:01:06;;;;;;;5.30;2.97;;;3.30;99.90;;;;;;5077870;28;20213;-66
2022/04/12 03:03:32;;;;;;;4.20;2.77;;;3.30;99.90;;;;;;5075940;28;20550;-65
2022/04/12 03:05:58;;;;;;;5.03;3.10;;;3.30;99.90;;;;;;5075418;28;20627;-66
2022/04/12 03:08:23;;;;;;;4.23;2.90;;;3.30;99.90;;;;;;5075425;28;20160;-66
2022/04/12 03:10:49;;;;;;;5.70;2.93;;;3.30;99.90;;;;;;5075782;28;20180;-65
2022/04/12 03:13:14;;;;;;;4.67;3.10;;;3.20;99.90;;;;;;5075790;28;20228;-65
2022/04/12 03:15:40;;;;;;;4.47;3.47;;;3.20;99.90;;;;;;5075612;28;20196;-66
2022/04/12 03:18:06;;;;;;;6.07;3.17;;;3.10;99.90;;;;;;5074333;28;20186;-67
2022/04/12 03:20:32;;;;;;;3.47;2.80;;;3.10;99.90;;;;;;5074944;28;20196;-65
2022/04/12 03:22:58;;;;;;;4.53;3.00;;;3.20;99.90;;;;;;5056919;28;20269;-66
2022/04/12 03:25:24;;;;;;;4.63;3.27;;;3.20;99.90;;;;;;5075430;28;20210;-65
2022/04/12 03:27:50;;;;;;;4.97;3.07;;;3.10;99.90;;;;;;5075011;28;20609;-67
2022/04/12 03:30:16;;;;;;;4.67;3.07;;;3.20;99.90;;;;;;5074742;28;20229;-66
2022/04/12 03:32:42;;;;;;;5.07;3.17;;;3.10;99.90;;;;;;5074661;28;20168;-66
2022/04/12 03:35:08;;;;;;;3.53;2.77;;;3.20;99.90;;;;;;5074760;28;20164;-65
2022/04/12 03:37:34;;;;;;;5.70;3.03;;;3.10;99.90;;;;;;5066727;28;20241;-65
2022/04/12 03:39:59;;;;;;;3.63;2.70;;;3.00;99.90;;;;;;5095247;28;20196;-65
2022/04/12 03:42:25;;;;;;;6.77;2.83;;;3.00;99.90;;;;;;5094708;28;20592;-66
2022/04/12 03:44:51;;;;;;;4.57;3.17;;;3.00;99.90;;;;;;5093192;28;20532;-66
2022/04/12 03:47:17;;;;;;;3.77;2.80;;;3.00;99.90;;;;;;5095333;28;20177;-66
2022/04/12 03:49:43;;;;;;;3.93;2.73;;;3.00;99.90;;;;;;5094568;28;20253;-66
2022/04/12 03:52:09;;;;;;;4.80;3.40;;;3.10;99.90;;;;;;5094688;28;20204;-65
2022/04/12 03:54:35;;;;;;;5.23;3.00;;;3.10;99.90;;;;;;5094836;28;20664;-64
2022/04/12 03:57:01;;;;;;;3.57;3.07;;;3.10;99.90;;;;;;5097610;28;20247;-66
2022/04/12 03:59:27;;;;;;;5.93;3.47;;;3.20;99.90;;;;;;5096291;28;20278;-66
2022/04/12 04:01:52;;;;;;;5.10;3.23;;;3.10;99.90;;;;;;5094790;28;20569;-67
2022/04/12 04:04:18;;;;;;;5.50;3.40;;;3.10;99.90;;;;;;5094782;28;20167;-68
2022/04/12 04:06:44;;;;;;;5.20;3.00;;;3.10;99.90;;;;;;5095036;28;20563;-66
2022/04/12 04:09:10;;;;;;;6.50;3.23;;;3.00;99.90;;;;;;5095583;28;20174;-65
2022/04/12 04:11:38;;;;;;;5.03;3.23;;;3.00;99.90;;;;;;5095022;28;20156;-66
2022/04/12 04:14:09;;;;;;;6.80;2.97;;;2.90;99.90;;;;;;5093045;28;20207;-65
2022/04/12 04:16:35;;;;;;;7.67;2.97;;;2.90;99.90;;;;;;5094503;28;20167;-65
2022/04/12 04:19:00;;;;;;;5.50;3.17;;;2.80;99.90;;;;;;5094482;28;20163;-66
2022/04/12 04:21:26;;;;;;;3.87;3.00;;;2.80;99.90;;;;;;5092314;28;20218;-65
2022/04/12 04:23:52;;;;;;;6.03;3.30;;;2.80;99.90;;;;;;5094027;28;20190;-65
2022/04/12 04:26:17;;;;;;;5.67;3.50;;;2.80;99.90;;;;;;5094274;28;20164;-66
2022/04/12 04:28:44;;;;;;;6.23;3.13;;;2.80;99.90;;;;;;5093749;28;20182;-68
2022/04/12 04:31:11;;;;;;;10.00;3.60;;;2.90;99.90;;;;;;5094008;28;20296;-65
2022/04/12 04:33:37;;;;;;;11.33;4.10;;;2.90;99.90;;;;;;5094460;28;20175;-67
2022/04/12 04:36:03;;;;;;;7.50;4.47;;;3.00;99.90;;;;;;5092955;28;20175;-65
2022/04/12 04:38:28;;;;;;;9.03;4.80;;;3.00;99.90;;;;;;5079686;28;20259;-66
2022/04/12 04:40:54;;;;;;;8.67;5.37;;;3.00;99.90;;;;;;5073693;28;20650;-66
2022/04/12 04:43:20;;;;;;;8.97;5.57;;;3.10;99.90;;;;;;5073982;28;20222;-67
2022/04/12 04:45:45;;;;;;;10.90;5.17;;;3.10;99.90;;;;;;5056208;28;20207;-67
2022/04/12 04:48:11;;;;;;;7.73;4.77;;;3.20;99.90;;;;;;5074481;28;20172;-66
2022/04/12 04:50:37;;;;;;;8.00;5.03;;;3.00;99.90;;;;;;5076115;28;20252;-67
2022/04/12 04:53:04;;;;;;;9.70;4.77;;;3.10;99.90;;;;;;5059915;28;20175;-67
2022/04/12 04:55:31;;;;;;;8.40;5.77;;;3.10;99.90;;;;;;5075425;28;20167;-70
2022/04/12 04:57:59;;;;;;;16.37;6.80;;;3.20;99.90;;;;;;5073566;28;20167;-66
2022/04/12 05:00:29;;;;;;;10.37;6.40;;;3.20;99.90;;;;;;5055620;28;20287;-65
2022/04/12 05:02:55;;;;;;;11.80;6.23;;;3.40;99.90;;;;;;5073573;28;20164;-65
2022/04/12 05:05:22;;;;;;;11.10;6.13;;;3.40;99.90;;;;;;5073674;28;20169;-67
2022/04/12 05:07:50;;;;;;;11.33;6.37;;;3.40;99.90;;;;;;5073217;28;20156;-65
2022/04/12 05:10:17;;;;;;;11.20;6.00;;;3.40;99.90;;;;;;5073859;28;20184;-67
2022/04/12 05:12:43;;;;;;;11.07;6.33;;;3.50;99.90;;;;;;5055554;28;20260;-66
2022/04/12 05:15:09;;;;;;;9.83;6.10;;;3.40;99.90;;;;;;5073881;28;20318;-65
2022/04/12 05:17:35;;;;;;;7.33;5.43;;;3.60;99.90;;;;;;5073973;28;20165;-65
2022/04/12 05:20:01;;;;;;;6.67;4.17;;;3.60;99.90;;;;;;5074502;28;20199;-65
2022/04/12 05:22:27;;;;;;;8.30;4.37;;;3.70;99.90;;;;;;5058017;28;20188;-66
2022/04/12 05:24:53;;;;;;;7.10;4.57;;;3.70;99.90;;;;;;5058484;28;20202;-65
2022/04/12 05:27:19;;;;;;;7.13;5.30;;;3.80;99.90;;;;;;5072207;28;20259;-66
2022/04/12 05:29:45;;;;;;;48.13;23.07;;;3.90;99.90;;;;;;5076912;28;20186;-65
2022/04/12 05:32:13;;;;;;;14.63;8.47;;;4.00;99.90;;;;;;5076096;28;20171;-66
2022/04/12 05:34:40;;;;;;;9.13;5.60;;;4.10;99.90;;;;;;5076938;28;20628;-66
2022/04/12 05:37:05;;;;;;;10.03;5.03;;;4.10;99.90;;;;;;5055164;28;20329;-65
2022/04/12 05:39:34;;;;;;;14.27;7.47;;;4.30;99.90;;;;;;5072647;28;20640;-66
2022/04/12 05:42:00;;;;;;;9.93;4.27;;;4.40;99.90;;;;;;5077062;28;20231;-67
2022/04/12 05:44:32;;;;;;;9.27;4.57;;;4.50;99.90;;;;;;5077140;28;20217;-65
2022/04/12 05:46:58;;;;;;;11.20;4.87;;;4.60;99.90;;;;;;5077105;28;20249;-67
2022/04/12 05:49:24;;;;;;;5.63;3.93;;;4.70;99.90;;;;;;5076866;28;20201;-64
2022/04/12 05:51:49;;;;;;;9.23;4.47;;;4.80;99.90;;;;;;5076623;28;20648;-65
2022/04/12 05:54:15;;;;;;;6.60;4.10;;;4.90;99.90;;;;;;5076391;28;20170;-65
2022/04/12 05:56:40;;;;;;;10.83;3.90;;;5.00;99.90;;;;;;5059085;28;20185;-65
2022/04/12 05:59:06;;;;;;;5.73;3.37;;;5.20;99.90;;;;;;5076873;28;20170;-66
2022/04/12 06:01:32;;;;;;;8.90;3.60;;;5.30;99.90;;;;;;5059299;28;20197;-65
2022/04/12 06:03:58;;;;;;;5.60;3.63;;;5.40;99.90;;;;;;5060326;28;20206;-67
2022/04/12 06:06:23;;;;;;;7.57;3.60;;;5.50;99.90;;;;;;5078302;28;20173;-66
2022/04/12 06:08:49;;;;;;;7.43;4.47;;;5.70;99.90;;;;;;5077195;28;20206;-66
2022/04/12 06:11:14;;;;;;;5.67;4.00;;;5.80;99.90;;;;;;5076278;28;20243;-67
2022/04/12 06:13:40;;;;;;;7.50;3.90;;;6.00;99.90;;;;;;5076258;28;20618;-66
2022/04/12 06:16:06;;;;;;;5.23;3.63;;;6.00;99.90;;;;;;5076796;28;20513;-65
2022/04/12 06:18:32;;;;;;;4.67;3.00;;;6.10;99.90;;;;;;5076929;28;20186;-65
2022/04/12 06:20:57;;;;;;;9.07;3.20;;;6.20;99.90;;;;;;5076090;28;20183;-69
2022/04/12 06:23:23;;;;;;;4.20;3.07;;;6.40;99.90;;;;;;5076392;28;20517;-66
2022/04/12 06:25:49;;;;;;;8.13;4.10;;;6.60;99.90;;;;;;5076255;28;20163;-65
2022/04/12 06:28:14;;;;;;;6.63;3.70;;;6.90;99.90;;;;;;5076492;28;20510;-66
2022/04/12 06:30:40;;;;;;;3.43;2.50;;;7.00;99.90;;;;;;5077111;28;20588;-66
2022/04/12 06:33:06;;;;;;;3.73;2.47;;;7.10;99.90;;;;;;5076297;28;20171;-66
2022/04/12 06:35:31;;;;;;;3.60;2.77;;;7.30;99.90;;;;;;5076299;28;20562;-65
2022/04/12 06:37:57;;;;;;;4.00;2.53;;;7.40;99.90;;;;;;5076858;28;20231;-66
2022/04/12 06:40:23;;;;;;;5.50;3.10;;;7.60;99.90;;;;;;5076236;28;20226;-65
2022/04/12 06:42:50;;;;;;;4.43;2.73;;;7.80;99.90;;;;;;5076324;28;20593;-65
2022/04/12 06:45:16;;;;;;;4.00;2.80;;;8.00;99.90;;;;;;5058214;28;20190;-65
2022/04/12 06:47:43;;;;;;;6.67;2.93;;;8.10;99.90;;;;;;5075679;28;20167;-66
2022/04/12 06:50:10;;;;;;;3.87;2.57;;;8.30;99.90;;;;;;5057546;28;20181;-65
2022/04/12 06:52:36;;;;;;;5.83;2.67;;;8.50;99.90;;;;;;5057677;28;20172;-65
2022/04/12 06:55:03;;;;;;;4.60;2.80;;;8.70;99.90;;;;;;5076037;28;20163;-66
2022/04/12 06:57:35;;;;;;;4.13;2.77;;;8.80;99.30;;;;;;5076479;28;20159;-65
2022/04/12 07:00:02;;;;;;;6.10;2.17;;;9.00;98.30;;;;;;5077982;28;20218;-66
2022/04/12 07:02:28;;;;;;;3.27;2.40;;;9.00;97.00;;;;;;5075634;28;20266;-65
2022/04/12 07:04:54;;;;;;;2.20;1.73;;;9.10;97.00;;;;;;5075720;28;20250;-66
2022/04/12 07:07:20;;;;;;;4.87;2.57;;;9.20;96.00;;;;;;5075382;28;20196;-66
2022/04/12 07:09:45;;;;;;;5.67;2.43;;;9.40;95.40;;;;;;5075473;28;20163;-66
2022/04/12 07:12:11;;;;;;;5.83;2.40;;;9.50;95.00;;;;;;5076014;28;20580;-66
2022/04/12 07:14:36;;;;;;;3.30;2.17;;;9.40;94.20;;;;;;5075044;28;20250;-69
2022/04/12 07:17:03;;;;;;;5.30;3.00;;;9.60;94.00;;;;;;5057655;28;20186;-66
2022/04/12 07:19:29;;;;;;;4.57;2.70;;;9.70;93.90;;;;;;5075537;28;20670;-66
2022/04/12 07:21:54;;;;;;;5.07;2.80;;;9.90;92.50;;;;;;5075756;28;20244;-67
2022/04/12 07:24:20;;;;;;;3.03;2.40;;;9.90;92.30;;;;;;5076735;28;20167;-68
2022/04/12 07:26:46;;;;;;;9.23;3.17;;;9.80;91.40;;;;;;5077160;28;20494;-70
2022/04/12 07:29:12;;;;;;;7.93;3.07;;;10.10;91.10;;;;;;5076720;28;20170;-65
2022/04/12 07:31:38;;;;;;;4.77;2.90;;;10.20;90.40;;;;;;5074887;28;20159;-66
2022/04/12 07:34:04;;;;;;;3.23;2.40;;;10.40;90.00;;;;;;5075606;28;20482;-66
2022/04/12 07:36:29;;;;;;;4.30;2.83;;;10.40;88.90;;;;;;5078696;28;20210;-67
2022/04/12 07:38:55;;;;;;;4.17;2.60;;;10.60;88.70;;;;;;5075901;28;20231;-67
2022/04/12 07:41:20;;;;;;;3.40;2.53;;;10.60;87.50;;;;;;5074658;28;20191;-67
2022/04/12 07:43:47;;;;;;;6.57;2.90;;;10.70;86.50;;;;;;5074738;28;20592;-66
2022/04/12 07:46:13;;;;;;;5.37;2.30;;;10.90;85.90;;;;;;5056678;28;20186;-69
2022/04/12 07:48:40;;;;;;;2.80;2.43;;;10.90;84.50;;;;;;5061318;28;20203;-68
2022/04/12 07:51:05;;;;;;;4.40;2.80;;;11.30;82.70;;;;;;5054494;28;20187;-66
2022/04/12 07:53:31;;;;;;;5.23;2.50;;;11.10;81.10;;;;;;5054882;28;20588;-65
2022/04/12 07:55:57;;;;;;;5.00;2.47;;;11.30;80.90;;;;;;5054733;28;20661;-66
2022/04/12 07:58:22;;;;;;;4.43;2.37;;;11.40;81.50;;;;;;5038083;28;20203;-67
2022/04/12 08:00:48;;;;;;;4.43;2.87;;;11.50;80.10;;;;;;5055693;28;20254;-66
2022/04/12 08:03:13;;;;;;;7.63;2.80;;;11.60;78.70;;;;;;5037575;28;20184;-66
2022/04/12 08:05:39;;;;;;;5.33;3.17;;;11.70;77.70;;;;;;5054162;28;20605;-65
2022/04/12 08:08:05;;;;;;;4.50;2.37;;;11.90;76.60;;;;;;5054122;28;20242;-67
2022/04/12 08:10:31;;;;;;;6.10;3.10;;;11.90;75.30;;;;;;5054388;28;20258;-66
2022/04/12 08:12:57;;;;;;;5.33;3.70;;;12.10;75.10;;;;;;5036806;28;20592;-69
2022/04/12 08:15:24;;;;;;;3.90;2.87;;;12.10;73.40;;;;;;5035924;28;20669;-66
2022/04/12 08:17:50;;;;;;;8.03;3.03;;;12.10;73.80;;;;;;5054597;28;20191;-66
2022/04/12 08:20:15;;;;;;;5.47;2.90;;;12.10;73.10;;;;;;5053836;28;20317;-67
2022/04/12 08:22:42;;;;;;;3.93;2.50;;;12.30;72.90;;;;;;5039143;28;20176;-67
2022/04/12 08:25:09;;;;;;;6.37;2.80;;;12.20;72.30;;;;;;5056469;28;20259;-67
2022/04/12 08:27:35;;;;;;;4.90;3.00;;;12.50;72.10;;;;;;5056798;28;20199;-66
2022/04/12 08:30:02;;;;;;;7.20;3.20;;;12.60;72.30;;;;;;5056737;28;20238;-66
2022/04/12 08:32:29;;;;;;;4.67;2.60;;;12.50;70.60;;;;;;5055016;28;20178;-65
2022/04/12 08:34:55;;;;;;;5.67;2.80;;;12.60;70.70;;;;;;5054384;28;20166;-66
2022/04/12 08:37:21;;;;;;;2.93;2.53;;;12.80;70.10;;;;;;5053777;28;20314;-66
2022/04/12 08:39:47;;;;;;;9.43;2.83;;;13.00;68.00;;;;;;5036010;28;20218;-67
2022/04/12 08:42:14;;;;;;;4.53;3.10;;;13.10;67.20;;;;;;5053870;28;20188;-66
2022/04/12 08:44:45;;;;;;;3.20;2.30;;;13.20;66.80;;;;;;5036239;28;20250;-66
2022/04/12 08:47:18;;;;;;;6.80;2.43;;;13.30;65.70;;;;;;5053754;28;20164;-66
2022/04/12 08:49:44;;;;;;;4.43;2.50;;;13.40;64.80;;;;;;5035808;28;20673;-66
2022/04/12 08:52:12;;;;;;;7.80;2.50;;;13.30;64.10;;;;;;5035752;28;20206;-68
2022/04/12 08:54:42;;;;;;;4.97;3.07;;;13.50;63.00;;;;;;5053270;28;20260;-67
2022/04/12 08:57:08;;;;;;;4.37;2.43;;;13.70;63.10;;;;;;5053535;28;20160;-68
2022/04/12 08:59:34;;;;;;;4.57;2.27;;;13.70;61.10;;;;;;5053504;28;20225;-65
2022/04/12 09:02:00;;;;;;;7.40;2.50;;;13.90;60.70;;;;;;5053531;28;20172;-67
2022/04/12 09:04:26;;;;;;;3.17;2.10;;;13.90;59.20;;;;;;5053138;28;20172;-67
2022/04/12 09:06:59;;;;;;;4.00;2.60;;;14.00;59.00;;;;;;5053744;28;20172;-67
2022/04/12 09:09:27;;;;;;;5.90;2.40;;;14.20;57.90;;;;;;5053462;28;20168;-66
2022/04/12 09:11:58;;;;;;;4.73;2.30;;;14.20;57.90;;;;;;5053342;28;20176;-67
2022/04/12 09:14:34;;;;;;;4.63;2.30;;;14.20;57.40;;;;;;5052831;28;20164;-67
2022/04/12 09:17:00;;;;;;;4.40;2.30;;;14.30;57.30;;;;;;5053695;28;20209;-67
2022/04/12 09:19:44;;;;;;;3.43;2.20;;;14.70;57.00;;;;;;5053365;28;20196;-67
2022/04/12 09:22:12;;;;;;;5.17;2.30;;;14.80;55.60;;;;;;5054517;28;20289;-65
2022/04/12 09:24:53;;;;;;;3.77;2.30;;;14.70;55.50;;;;;;5054048;28;20216;-66
2022/04/12 09:27:23;;;;;;;6.40;2.57;;;14.90;56.00;;;;;;5054751;28;20588;-66
2022/04/12 09:29:52;;;;;;;4.50;2.33;;;15.10;53.10;;;;;;5054968;28;20168;-66
2022/04/12 09:32:25;;;;;;;4.40;2.53;;;15.10;51.60;;;;;;5053846;28;20210;-64
2022/04/12 09:34:52;;;;;;;3.70;2.33;;;14.80;51.20;;;;;;5054045;28;20176;-66
2022/04/12 09:37:17;;;;;;;3.20;2.10;;;15.10;51.00;;;;;;5054030;28;20219;-67
2022/04/12 09:40:06;;;;;;;3.73;2.33;;;15.20;49.80;;;;;;5054226;28;20200;-67
2022/04/12 09:42:50;;;;;;;2.87;1.87;;;15.30;48.50;;;;;;5054146;28;20654;-66
2022/04/12 09:45:24;;;;;;;5.40;2.30;;;15.50;48.60;;;;;;5056348;28;20168;-67
2022/04/12 09:47:52;;;;;;;5.17;2.17;;;15.20;47.60;;;;;;5057187;28;20585;-66
2022/04/12 09:50:25;;;;;;;2.97;2.30;;;14.90;48.00;;;;;;5057245;28;20168;-67
2022/04/12 09:52:58;;;;;;;3.53;2.20;;;15.00;47.70;;;;;;5036764;28;20554;-67
2022/04/12 09:55:45;;;;;;;4.40;2.50;;;15.30;48.00;;;;;;5053295;28;20168;-66
2022/04/12 09:58:15;;;;;;;4.10;2.73;;;15.50;48.00;;;;;;5053910;28;20210;-68
2022/04/12 10:00:43;;;;;;;6.17;2.80;;;15.40;47.70;;;;;;5053439;28;20192;-68
2022/04/12 10:03:14;;;;;;;2.87;2.07;;;15.50;47.80;;;;;;5053305;28;20234;-66
2022/04/12 10:05:40;;;;;;;4.67;2.40;;;15.60;47.80;;;;;;5053026;28;20211;-66
2022/04/12 10:08:11;;;;;;;3.27;2.57;;;15.60;47.30;;;;;;5052622;28;20654;-66
2022/04/12 10:10:41;;;;;;;3.07;2.40;;;15.60;47.20;;;;;;5052851;28;20156;-67
2022/04/12 10:13:10;;;;;;;7.20;2.50;;;15.90;47.10;;;;;;5052707;28;20623;-66
2022/04/12 10:15:37;;;;;;;3.63;2.13;;;16.00;46.80;;;;;;5052954;28;20218;-64
2022/04/12 10:18:03;;;;;;;4.47;2.40;;;16.00;46.00;;;;;;5053187;28;20292;-65
2022/04/12 10:20:30;;;;;;;7.13;3.00;;;15.90;45.70;;;;;;5052625;28;20243;-64
2022/04/12 10:22:57;;;;;;;4.23;2.33;;;15.90;45.90;;;;;;5052937;28;20255;-67
2022/04/12 10:25:24;;;;;;;4.77;2.80;;;16.10;45.70;;;;;;5052524;28;20545;-64
2022/04/12 10:27:55;;;;;;;5.67;2.80;;;16.20;46.10;;;;;;5056345;28;20168;-64
2022/04/12 10:30:28;;;;;;;3.30;2.17;;;16.20;46.40;;;;;;5056821;28;20562;-65
2022/04/12 10:33:24;;;;;;;5.03;2.30;;;16.10;45.70;;;;;;5055963;28;20314;-63
2022/04/12 10:35:56;;;;;;;5.70;2.30;;;16.20;45.30;;;;;;5049369;28;20199;-63
2022/04/12 10:38:24;;;;;;;3.20;2.37;;;16.10;44.40;;;;;;5056043;28;20581;-65
2022/04/12 10:41:08;;;;;;;4.00;2.37;;;16.10;44.40;;;;;;5056040;28;20257;-64
2022/04/12 10:43:36;;;;;;;6.97;2.43;;;16.20;44.50;;;;;;5055759;28;20253;-66
2022/04/12 10:46:04;;;;;;;5.40;1.97;;;15.90;43.20;;;;;;5056462;28;20171;-64
2022/04/12 10:48:31;;;;;;;3.60;2.40;;;16.30;43.70;;;;;;5055919;28;20209;-66
2022/04/12 10:51:00;;;;;;;4.67;2.20;;;16.70;43.50;;;;;;5055454;28;20156;-65
2022/04/12 10:53:38;;;;;;;2.95;2.22;;;16.70;42.40;;;;;;5055516;28;20249;-64
2022/04/12 10:56:08;;;;;;;3.43;2.20;;;16.70;42.50;;;;;;5056052;28;20604;-67
2022/04/12 10:58:34;;;;;;;3.88;2.58;;;16.50;42.80;;;;;;5055673;28;20243;-64
2022/04/12 11:01:00;;;;;;;3.28;2.35;;;16.50;42.60;;;;;;5055249;28;20291;-64
2022/04/12 11:03:44;;;;;;;4.78;2.30;;;16.70;42.00;;;;;;5055807;28;20168;-65
2022/04/12 11:06:14;;;;;;;3.58;2.20;;;16.50;41.80;;;;;;5055983;28;20264;-64
2022/04/12 11:08:47;;;;;;;3.55;2.70;;;16.60;42.00;;;;;;5055799;28;20258;-65
2022/04/12 11:11:18;;;;;;;11.43;7.53;;;16.60;42.40;;;;;;5056119;28;20490;-66
2022/04/12 11:13:44;;;;;;;2.97;2.25;;;16.60;42.50;;;;;;5058140;28;20167;-65
2022/04/12 11:16:12;;;;;;;5.10;2.55;;;16.40;42.40;;;;;;5056598;28;20660;-66
2022/04/12 11:18:47;;;;;;;5.85;2.40;;;16.40;41.60;;;;;;5054892;28;20294;-65
2022/04/12 11:21:13;;;;;;;3.35;2.15;;;16.30;41.30;;;;;;5055220;28;20195;-65
2022/04/12 11:23:46;;;;;;;3.27;2.70;;;16.50;41.90;;;;;;5037243;28;20191;-64
2022/04/12 11:26:26;;;;;;;4.13;2.30;;;16.40;41.40;;;;;;5054401;28;20571;-65
2022/04/12 11:28:56;;;;;;;4.30;2.90;;;16.70;42.10;;;;;;5036660;28;20219;-66
2022/04/12 11:31:22;;;;;;;3.53;2.50;;;16.70;42.00;;;;;;5054913;28;20163;-65
2022/04/12 11:33:48;;;;;;;4.53;2.63;;;16.80;41.70;;;;;;5055479;28;20167;-64
2022/04/12 11:36:18;;;;;;;2.70;2.30;;;16.50;41.90;;;;;;5054663;28;20184;-65
2022/04/12 11:38:43;;;;;;;3.38;2.70;;;16.40;41.30;;;;;;5053236;28;20239;-65
2022/04/12 11:41:09;;;;;;;5.75;3.40;;;16.40;41.90;;;;;;5054180;28;20333;-65
2022/04/12 11:43:35;;;;;;;5.60;2.90;;;16.40;41.90;;;;;;5054319;28;20218;-65
2022/04/12 11:46:03;;;;;;;3.87;2.90;;;16.60;41.40;;;;;;5036704;28;20179;-65
2022/04/12 11:48:31;;;;;;;6.43;2.83;;;16.90;41.30;;;;;;5055268;28;20160;-65
2022/04/12 11:50:58;;;;;;;4.22;2.75;;;16.90;41.20;;;;;;5054767;28;20251;-65
2022/04/12 11:53:26;;;;;;;5.05;3.13;;;16.60;41.00;;;;;;5054785;28;20173;-65
2022/04/12 11:55:58;;;;;;;6.78;3.78;;;16.80;41.70;;;;;;5054515;28;20178;-65
2022/04/12 11:58:29;;;;;;;4.80;3.33;;;16.90;42.80;;;;;;5054332;28;20165;-64
2022/04/12 12:00:55;;;;;;;5.28;3.38;;;16.60;42.60;;;;;;5036854;28;20551;-64
2022/04/12 12:03:20;;;;;;;5.60;3.40;;;16.60;42.80;;;;;;5037127;28;20178;-65
2022/04/12 12:05:47;;;;;;;4.83;3.50;;;16.70;42.60;;;;;;5055439;28;20157;-65
2022/04/12 12:08:17;;;;;;;5.00;3.27;;;16.70;42.40;;;;;;5055744;28;20217;-66
2022/04/12 12:10:42;;;;;;;6.47;3.70;;;16.90;42.20;;;;;;5055426;28;20274;-66
2022/04/12 12:13:08;;;;;;;6.32;4.07;;;16.90;41.80;;;;;;5055560;28;20194;-65
2022/04/12 12:15:35;;;;;;;6.75;3.92;;;16.80;41.80;;;;;;5053908;28;20248;-65
2022/04/12 12:18:06;;;;;;;5.53;3.47;;;17.10;42.80;;;;;;5053670;28;20187;-65
2022/04/12 12:20:37;;;;;;;3.95;3.28;;;17.50;42.60;;;;;;5053984;28;20761;-64
2022/04/12 12:23:05;;;;;;;4.57;3.35;;;17.20;41.40;;;;;;5054131;28;20584;-64
2022/04/12 12:25:39;;;;;;;9.47;3.30;;;17.10;40.50;;;;;;5036296;28;20174;-65
2022/04/12 12:28:23;;;;;;;4.40;3.50;;;17.40;40.40;;;;;;5036521;28;20167;-64
2022/04/12 12:30:56;;;;;;;4.03;3.28;;;17.40;40.70;;;;;;5053620;28;20307;-65
2022/04/12 12:33:34;;;;;;;4.63;3.70;;;17.80;40.50;;;;;;5053644;28;20214;-66
2022/04/12 12:36:00;;;;;;;4.97;3.28;;;17.60;39.90;;;;;;5054598;28;20271;-65
2022/04/12 12:38:27;;;;;;;4.10;2.92;;;17.60;40.00;;;;;;5055630;28;20345;-65
2022/04/12 12:40:59;;;;;;;4.43;3.38;;;17.70;40.00;;;;;;5054005;28;20365;-65
2022/04/12 12:43:32;;;;;;;3.85;2.83;;;17.80;39.20;;;;;;5035991;28;20183;-65
2022/04/12 12:46:04;;;;;;;6.05;3.00;;;17.80;38.70;;;;;;5036134;28;20520;-66
2022/04/12 12:48:30;;;;;;;5.32;3.15;;;17.70;39.10;;;;;;5035755;28;20607;-65
2022/04/12 12:50:56;;;;;;;4.07;3.10;;;17.80;39.60;;;;;;5053475;28;20168;-65
2022/04/12 12:53:25;;;;;;;6.43;3.55;;;17.70;39.70;;;;;;5053525;28;20168;-66
2022/04/12 12:55:51;;;;;;;3.75;2.50;;;17.50;39.70;;;;;;5053418;28;20172;-64